sensor_id;sensor_type;location;lat;lon;timestamp;P1;durP1;ratioP1;P2;durP2;ratioP2
39860;SDS011;25529;49.346;20.886;2023-05-10T00:00:46;31.38;;;13.05;;
39860;SDS011;25529;49.346;20.886;2023-05-10T00:03:12;50.30;;;18.25;;
39860;SDS011;25529;49.346;20.886;2023-05-10T00:05:37;29.40;;;12.02;;
39860;SDS011;25529;49.346;20.886;2023-05-10T00:08:02;26.88;;;10.88;;
39860;SDS011;25529;49.346;20.886;2023-05-10T00:10:28;31.63;;;13.85;;
39860;SDS011;25529;49.346;20.886;2023-05-10T00:12:53;28.63;;;12.75;;
39860;SDS011;25529;49.346;20.886;2023-05-10T00:15:18;29.73;;;12.40;;
39860;SDS011;25529;49.346;20.886;2023-05-10T00:17:44;27.70;;;12.05;;
39860;SDS011;25529;49.346;20.886;2023-05-10T00:20:09;31.00;;;13.40;;
39860;SDS011;25529;49.346;20.886;2023-05-10T00:22:35;33.65;;;15.13;;
39860;SDS011;25529;49.346;20.886;2023-05-10T00:25:00;38.20;;;15.68;;
39860;SDS011;25529;49.346;20.886;2023-05-10T00:27:26;35.85;;;16.55;;
39860;SDS011;25529;49.346;20.886;2023-05-10T00:29:51;34.65;;;15.90;;
39860;SDS011;25529;49.346;20.886;2023-05-10T00:32:18;34.35;;;16.65;;
39860;SDS011;25529;49.346;20.886;2023-05-10T00:34:43;29.23;;;13.02;;
39860;SDS011;25529;49.346;20.886;2023-05-10T00:37:09;31.73;;;12.95;;
39860;SDS011;25529;49.346;20.886;2023-05-10T00:39:35;32.95;;;13.82;;
39860;SDS011;25529;49.346;20.886;2023-05-10T00:42:00;32.90;;;14.40;;
39860;SDS011;25529;49.346;20.886;2023-05-10T00:44:25;29.33;;;12.77;;
39860;SDS011;25529;49.346;20.886;2023-05-10T00:46:51;28.35;;;12.98;;
39860;SDS011;25529;49.346;20.886;2023-05-10T00:49:16;30.05;;;12.55;;
39860;SDS011;25529;49.346;20.886;2023-05-10T00:51:42;30.52;;;12.88;;
39860;SDS011;25529;49.346;20.886;2023-05-10T00:54:08;27.00;;;11.80;;
39860;SDS011;25529;49.346;20.886;2023-05-10T00:56:34;31.60;;;13.43;;
39860;SDS011;25529;49.346;20.886;2023-05-10T00:58:59;28.77;;;12.50;;
39860;SDS011;25529;49.346;20.886;2023-05-10T01:01:25;26.05;;;10.30;;
39860;SDS011;25529;49.346;20.886;2023-05-10T01:03:50;26.25;;;11.00;;
39860;SDS011;25529;49.346;20.886;2023-05-10T01:06:16;24.63;;;10.30;;
39860;SDS011;25529;49.346;20.886;2023-05-10T01:08:41;26.42;;;10.68;;
39860;SDS011;25529;49.346;20.886;2023-05-10T01:11:06;22.67;;;9.20;;
39860;SDS011;25529;49.346;20.886;2023-05-10T01:15:57;25.70;;;10.30;;
39860;SDS011;25529;49.346;20.886;2023-05-10T01:18:23;26.95;;;10.52;;
39860;SDS011;25529;49.346;20.886;2023-05-10T01:20:48;24.90;;;10.05;;
39860;SDS011;25529;49.346;20.886;2023-05-10T01:23:38;25.30;;;10.70;;
39860;SDS011;25529;49.346;20.886;2023-05-10T01:26:13;25.35;;;10.93;;
39860;SDS011;25529;49.346;20.886;2023-05-10T01:31:18;23.15;;;9.43;;
39860;SDS011;25529;49.346;20.886;2023-05-10T01:33:52;23.77;;;8.60;;
39860;SDS011;25529;49.346;20.886;2023-05-10T01:38:51;24.38;;;8.25;;
39860;SDS011;25529;49.346;20.886;2023-05-10T01:46:20;24.58;;;8.73;;
39860;SDS011;25529;49.346;20.886;2023-05-10T01:48:51;22.42;;;8.15;;
39860;SDS011;25529;49.346;20.886;2023-05-10T01:51:18;22.80;;;8.90;;
39860;SDS011;25529;49.346;20.886;2023-05-10T01:53:44;22.45;;;8.65;;
39860;SDS011;25529;49.346;20.886;2023-05-10T01:56:11;21.42;;;8.40;;
39860;SDS011;25529;49.346;20.886;2023-05-10T01:58:37;26.05;;;8.80;;
39860;SDS011;25529;49.346;20.886;2023-05-10T02:01:05;19.35;;;7.10;;
39860;SDS011;25529;49.346;20.886;2023-05-10T02:03:32;21.00;;;7.38;;
39860;SDS011;25529;49.346;20.886;2023-05-10T02:05:58;24.40;;;8.30;;
39860;SDS011;25529;49.346;20.886;2023-05-10T02:08:24;20.15;;;7.43;;
39860;SDS011;25529;49.346;20.886;2023-05-10T02:10:50;21.60;;;7.57;;
39860;SDS011;25529;49.346;20.886;2023-05-10T02:13:17;21.13;;;7.43;;
39860;SDS011;25529;49.346;20.886;2023-05-10T02:15:43;20.98;;;7.35;;
39860;SDS011;25529;49.346;20.886;2023-05-10T02:18:09;21.20;;;7.65;;
39860;SDS011;25529;49.346;20.886;2023-05-10T02:20:35;22.40;;;7.68;;
39860;SDS011;25529;49.346;20.886;2023-05-10T02:23:02;23.70;;;7.63;;
39860;SDS011;25529;49.346;20.886;2023-05-10T02:25:28;20.83;;;7.93;;
39860;SDS011;25529;49.346;20.886;2023-05-10T02:27:56;21.42;;;8.15;;
39860;SDS011;25529;49.346;20.886;2023-05-10T02:30:22;19.25;;;7.38;;
39860;SDS011;25529;49.346;20.886;2023-05-10T02:32:48;20.65;;;7.10;;
39860;SDS011;25529;49.346;20.886;2023-05-10T02:35:14;21.33;;;7.28;;
39860;SDS011;25529;49.346;20.886;2023-05-10T02:37:40;21.08;;;7.05;;
39860;SDS011;25529;49.346;20.886;2023-05-10T02:40:06;21.90;;;7.22;;
39860;SDS011;25529;49.346;20.886;2023-05-10T02:42:33;20.17;;;7.30;;
39860;SDS011;25529;49.346;20.886;2023-05-10T02:45:00;21.90;;;8.02;;
39860;SDS011;25529;49.346;20.886;2023-05-10T02:47:26;20.58;;;7.55;;
39860;SDS011;25529;49.346;20.886;2023-05-10T02:49:52;22.15;;;7.65;;
39860;SDS011;25529;49.346;20.886;2023-05-10T02:52:19;20.10;;;7.20;;
39860;SDS011;25529;49.346;20.886;2023-05-10T02:54:48;20.00;;;7.20;;
39860;SDS011;25529;49.346;20.886;2023-05-10T02:57:18;21.52;;;8.05;;
39860;SDS011;25529;49.346;20.886;2023-05-10T02:59:47;21.58;;;8.18;;
39860;SDS011;25529;49.346;20.886;2023-05-10T03:02:12;22.27;;;7.63;;
39860;SDS011;25529;49.346;20.886;2023-05-10T03:04:38;20.95;;;7.55;;
39860;SDS011;25529;49.346;20.886;2023-05-10T03:07:07;22.30;;;7.97;;
39860;SDS011;25529;49.346;20.886;2023-05-10T03:09:32;20.42;;;7.15;;
39860;SDS011;25529;49.346;20.886;2023-05-10T03:12:04;23.05;;;8.07;;
39860;SDS011;25529;49.346;20.886;2023-05-10T03:17:20;25.70;;;10.48;;
39860;SDS011;25529;49.346;20.886;2023-05-10T03:19:50;31.42;;;10.63;;
39860;SDS011;25529;49.346;20.886;2023-05-10T03:22:21;23.75;;;8.77;;
39860;SDS011;25529;49.346;20.886;2023-05-10T03:24:48;21.77;;;8.15;;
39860;SDS011;25529;49.346;20.886;2023-05-10T03:30:16;20.80;;;7.33;;
39860;SDS011;25529;49.346;20.886;2023-05-10T03:32:43;22.27;;;7.10;;
39860;SDS011;25529;49.346;20.886;2023-05-10T03:35:09;21.00;;;7.30;;
39860;SDS011;25529;49.346;20.886;2023-05-10T03:37:35;19.55;;;7.18;;
39860;SDS011;25529;49.346;20.886;2023-05-10T03:40:08;26.13;;;7.40;;
39860;SDS011;25529;49.346;20.886;2023-05-10T03:42:35;20.02;;;7.32;;
39860;SDS011;25529;49.346;20.886;2023-05-10T03:47:38;20.65;;;7.68;;
39860;SDS011;25529;49.346;20.886;2023-05-10T03:50:04;25.38;;;8.13;;
39860;SDS011;25529;49.346;20.886;2023-05-10T03:52:29;21.45;;;7.75;;
39860;SDS011;25529;49.346;20.886;2023-05-10T03:54:54;20.33;;;7.68;;
39860;SDS011;25529;49.346;20.886;2023-05-10T03:57:20;20.25;;;7.82;;
39860;SDS011;25529;49.346;20.886;2023-05-10T03:59:45;21.75;;;7.75;;
39860;SDS011;25529;49.346;20.886;2023-05-10T04:02:11;21.15;;;8.18;;
39860;SDS011;25529;49.346;20.886;2023-05-10T04:04:36;21.60;;;7.95;;
39860;SDS011;25529;49.346;20.886;2023-05-10T04:07:02;28.73;;;8.43;;
39860;SDS011;25529;49.346;20.886;2023-05-10T04:09:28;23.58;;;7.82;;
39860;SDS011;25529;49.346;20.886;2023-05-10T04:11:53;29.85;;;7.70;;
39860;SDS011;25529;49.346;20.886;2023-05-10T04:14:19;23.52;;;8.00;;
39860;SDS011;25529;49.346;20.886;2023-05-10T04:16:44;20.80;;;7.65;;
39860;SDS011;25529;49.346;20.886;2023-05-10T04:19:09;24.27;;;8.25;;
39860;SDS011;25529;49.346;20.886;2023-05-10T04:21:35;21.48;;;7.60;;
39860;SDS011;25529;49.346;20.886;2023-05-10T04:29:20;20.33;;;7.03;;
39860;SDS011;25529;49.346;20.886;2023-05-10T04:31:48;21.85;;;7.25;;
39860;SDS011;25529;49.346;20.886;2023-05-10T04:34:14;21.10;;;7.60;;
39860;SDS011;25529;49.346;20.886;2023-05-10T04:36:39;20.73;;;7.60;;
39860;SDS011;25529;49.346;20.886;2023-05-10T04:39:04;19.50;;;7.80;;
39860;SDS011;25529;49.346;20.886;2023-05-10T04:41:30;20.13;;;7.35;;
39860;SDS011;25529;49.346;20.886;2023-05-10T04:43:55;20.48;;;7.43;;
39860;SDS011;25529;49.346;20.886;2023-05-10T04:46:21;18.92;;;6.65;;
39860;SDS011;25529;49.346;20.886;2023-05-10T04:48:46;20.92;;;7.47;;
39860;SDS011;25529;49.346;20.886;2023-05-10T04:51:11;21.33;;;7.32;;
39860;SDS011;25529;49.346;20.886;2023-05-10T04:53:38;20.10;;;7.72;;
39860;SDS011;25529;49.346;20.886;2023-05-10T04:56:03;18.95;;;7.07;;
39860;SDS011;25529;49.346;20.886;2023-05-10T04:58:29;22.02;;;7.28;;
39860;SDS011;25529;49.346;20.886;2023-05-10T05:00:54;22.55;;;8.23;;
39860;SDS011;25529;49.346;20.886;2023-05-10T05:03:19;21.40;;;8.18;;
39860;SDS011;25529;49.346;20.886;2023-05-10T05:05:45;26.52;;;8.48;;
39860;SDS011;25529;49.346;20.886;2023-05-10T05:08:10;19.83;;;7.72;;
39860;SDS011;25529;49.346;20.886;2023-05-10T05:10:35;23.75;;;8.50;;
39860;SDS011;25529;49.346;20.886;2023-05-10T05:13:00;23.15;;;8.02;;
39860;SDS011;25529;49.346;20.886;2023-05-10T05:15:26;19.90;;;8.07;;
39860;SDS011;25529;49.346;20.886;2023-05-10T05:17:51;20.48;;;7.32;;
39860;SDS011;25529;49.346;20.886;2023-05-10T05:20:16;20.13;;;7.57;;
39860;SDS011;25529;49.346;20.886;2023-05-10T05:22:43;22.50;;;8.35;;
39860;SDS011;25529;49.346;20.886;2023-05-10T05:25:09;23.80;;;8.18;;
39860;SDS011;25529;49.346;20.886;2023-05-10T05:27:34;21.42;;;7.63;;
39860;SDS011;25529;49.346;20.886;2023-05-10T05:30:00;20.42;;;7.45;;
39860;SDS011;25529;49.346;20.886;2023-05-10T05:32:25;19.90;;;7.30;;
39860;SDS011;25529;49.346;20.886;2023-05-10T05:34:50;19.30;;;7.15;;
39860;SDS011;25529;49.346;20.886;2023-05-10T05:37:19;18.73;;;7.03;;
39860;SDS011;25529;49.346;20.886;2023-05-10T05:39:46;21.77;;;7.28;;
39860;SDS011;25529;49.346;20.886;2023-05-10T05:42:12;19.50;;;7.03;;
39860;SDS011;25529;49.346;20.886;2023-05-10T05:44:37;19.30;;;7.53;;
39860;SDS011;25529;49.346;20.886;2023-05-10T05:47:03;20.25;;;7.45;;
39860;SDS011;25529;49.346;20.886;2023-05-10T05:49:28;22.77;;;7.22;;
39860;SDS011;25529;49.346;20.886;2023-05-10T05:51:54;19.00;;;6.68;;
39860;SDS011;25529;49.346;20.886;2023-05-10T05:54:20;18.67;;;6.85;;
39860;SDS011;25529;49.346;20.886;2023-05-10T05:56:45;18.88;;;6.97;;
39860;SDS011;25529;49.346;20.886;2023-05-10T05:59:10;20.08;;;6.93;;
39860;SDS011;25529;49.346;20.886;2023-05-10T06:01:36;21.80;;;8.30;;
39860;SDS011;25529;49.346;20.886;2023-05-10T06:04:01;20.95;;;7.38;;
39860;SDS011;25529;49.346;20.886;2023-05-10T06:06:27;21.63;;;7.40;;
39860;SDS011;25529;49.346;20.886;2023-05-10T06:08:54;18.98;;;6.93;;
39860;SDS011;25529;49.346;20.886;2023-05-10T06:11:20;20.92;;;7.07;;
39860;SDS011;25529;49.346;20.886;2023-05-10T06:13:46;57.67;;;28.70;;
39860;SDS011;25529;49.346;20.886;2023-05-10T06:16:12;67.03;;;41.55;;
39860;SDS011;25529;49.346;20.886;2023-05-10T06:18:38;28.33;;;11.10;;
39860;SDS011;25529;49.346;20.886;2023-05-10T06:21:03;29.70;;;14.50;;
39860;SDS011;25529;49.346;20.886;2023-05-10T06:23:28;31.75;;;13.98;;
39860;SDS011;25529;49.346;20.886;2023-05-10T06:25:54;37.22;;;18.52;;
39860;SDS011;25529;49.346;20.886;2023-05-10T06:28:19;46.13;;;30.65;;
39860;SDS011;25529;49.346;20.886;2023-05-10T06:30:45;29.42;;;12.80;;
39860;SDS011;25529;49.346;20.886;2023-05-10T06:33:10;23.13;;;8.18;;
39860;SDS011;25529;49.346;20.886;2023-05-10T06:35:35;26.05;;;7.32;;
39860;SDS011;25529;49.346;20.886;2023-05-10T06:38:01;21.63;;;7.10;;
39860;SDS011;25529;49.346;20.886;2023-05-10T06:40:27;19.38;;;6.65;;
39860;SDS011;25529;49.346;20.886;2023-05-10T06:42:52;20.08;;;6.57;;
39860;SDS011;25529;49.346;20.886;2023-05-10T06:45:17;18.67;;;6.95;;
39860;SDS011;25529;49.346;20.886;2023-05-10T06:47:42;18.17;;;6.70;;
39860;SDS011;25529;49.346;20.886;2023-05-10T06:50:08;17.95;;;6.07;;
39860;SDS011;25529;49.346;20.886;2023-05-10T06:52:34;16.58;;;5.95;;
39860;SDS011;25529;49.346;20.886;2023-05-10T06:54:59;20.73;;;5.97;;
39860;SDS011;25529;49.346;20.886;2023-05-10T06:57:25;23.95;;;7.03;;
39860;SDS011;25529;49.346;20.886;2023-05-10T06:59:50;16.48;;;5.90;;
39860;SDS011;25529;49.346;20.886;2023-05-10T07:02:16;25.35;;;6.40;;
39860;SDS011;25529;49.346;20.886;2023-05-10T07:04:42;20.77;;;6.13;;
39860;SDS011;25529;49.346;20.886;2023-05-10T07:07:07;18.67;;;5.97;;
39860;SDS011;25529;49.346;20.886;2023-05-10T07:09:34;19.48;;;5.80;;
39860;SDS011;25529;49.346;20.886;2023-05-10T07:11:59;18.38;;;5.90;;
39860;SDS011;25529;49.346;20.886;2023-05-10T07:14:24;21.98;;;6.32;;
39860;SDS011;25529;49.346;20.886;2023-05-10T07:16:50;20.27;;;6.15;;
39860;SDS011;25529;49.346;20.886;2023-05-10T07:19:15;16.92;;;5.72;;
39860;SDS011;25529;49.346;20.886;2023-05-10T07:21:40;17.65;;;6.00;;
39860;SDS011;25529;49.346;20.886;2023-05-10T07:24:08;17.38;;;5.53;;
39860;SDS011;25529;49.346;20.886;2023-05-10T07:26:33;16.88;;;5.80;;
39860;SDS011;25529;49.346;20.886;2023-05-10T07:28:58;17.02;;;5.90;;
39860;SDS011;25529;49.346;20.886;2023-05-10T07:31:24;14.52;;;5.43;;
39860;SDS011;25529;49.346;20.886;2023-05-10T07:33:49;16.63;;;5.53;;
39860;SDS011;25529;49.346;20.886;2023-05-10T07:36:14;18.25;;;5.80;;
39860;SDS011;25529;49.346;20.886;2023-05-10T07:38:40;16.40;;;5.40;;
39860;SDS011;25529;49.346;20.886;2023-05-10T07:41:05;19.38;;;5.43;;
39860;SDS011;25529;49.346;20.886;2023-05-10T07:43:30;17.42;;;5.63;;
39860;SDS011;25529;49.346;20.886;2023-05-10T07:45:56;13.75;;;5.35;;
39860;SDS011;25529;49.346;20.886;2023-05-10T07:48:22;14.65;;;5.55;;
39860;SDS011;25529;49.346;20.886;2023-05-10T07:50:47;14.38;;;5.25;;
39860;SDS011;25529;49.346;20.886;2023-05-10T07:53:13;14.00;;;5.25;;
39860;SDS011;25529;49.346;20.886;2023-05-10T07:55:38;18.60;;;5.68;;
39860;SDS011;25529;49.346;20.886;2023-05-10T07:58:03;14.85;;;5.28;;
39860;SDS011;25529;49.346;20.886;2023-05-10T08:00:29;15.63;;;5.25;;
39860;SDS011;25529;49.346;20.886;2023-05-10T08:02:54;16.40;;;5.45;;
39860;SDS011;25529;49.346;20.886;2023-05-10T08:05:19;14.43;;;4.80;;
39860;SDS011;25529;49.346;20.886;2023-05-10T08:07:45;15.00;;;5.32;;
39860;SDS011;25529;49.346;20.886;2023-05-10T08:10:11;15.95;;;5.50;;
39860;SDS011;25529;49.346;20.886;2023-05-10T08:12:37;12.48;;;4.78;;
39860;SDS011;25529;49.346;20.886;2023-05-10T08:15:03;15.93;;;4.90;;
39860;SDS011;25529;49.346;20.886;2023-05-10T08:17:28;14.40;;;5.18;;
39860;SDS011;25529;49.346;20.886;2023-05-10T08:19:54;16.17;;;5.43;;
39860;SDS011;25529;49.346;20.886;2023-05-10T08:22:19;16.13;;;5.40;;
39860;SDS011;25529;49.346;20.886;2023-05-10T08:24:44;18.58;;;5.18;;
39860;SDS011;25529;49.346;20.886;2023-05-10T08:27:10;17.08;;;5.13;;
39860;SDS011;25529;49.346;20.886;2023-05-10T08:29:35;13.93;;;5.13;;
39860;SDS011;25529;49.346;20.886;2023-05-10T08:32:00;13.93;;;4.70;;
39860;SDS011;25529;49.346;20.886;2023-05-10T08:34:26;17.17;;;5.20;;
39860;SDS011;25529;49.346;20.886;2023-05-10T08:36:52;14.82;;;5.30;;
39860;SDS011;25529;49.346;20.886;2023-05-10T08:39:17;13.63;;;4.82;;
39860;SDS011;25529;49.346;20.886;2023-05-10T08:41:43;15.13;;;5.03;;
39860;SDS011;25529;49.346;20.886;2023-05-10T08:44:09;14.70;;;5.38;;
39860;SDS011;25529;49.346;20.886;2023-05-10T08:46:35;18.13;;;5.15;;
39860;SDS011;25529;49.346;20.886;2023-05-10T08:49:03;16.90;;;5.28;;
39860;SDS011;25529;49.346;20.886;2023-05-10T08:51:29;15.35;;;5.07;;
39860;SDS011;25529;49.346;20.886;2023-05-10T08:53:58;18.48;;;5.05;;
39860;SDS011;25529;49.346;20.886;2023-05-10T08:56:23;14.20;;;4.97;;
39860;SDS011;25529;49.346;20.886;2023-05-10T08:58:49;13.40;;;4.95;;
39860;SDS011;25529;49.346;20.886;2023-05-10T09:01:15;12.07;;;4.80;;
39860;SDS011;25529;49.346;20.886;2023-05-10T09:03:41;15.00;;;5.00;;
39860;SDS011;25529;49.346;20.886;2023-05-10T09:06:07;15.60;;;5.13;;
39860;SDS011;25529;49.346;20.886;2023-05-10T09:08:32;15.35;;;4.90;;
39860;SDS011;25529;49.346;20.886;2023-05-10T09:10:58;12.27;;;4.97;;
39860;SDS011;25529;49.346;20.886;2023-05-10T09:13:25;10.27;;;4.40;;
39860;SDS011;25529;49.346;20.886;2023-05-10T09:15:51;14.75;;;5.35;;
39860;SDS011;25529;49.346;20.886;2023-05-10T09:18:16;12.32;;;4.78;;
39860;SDS011;25529;49.346;20.886;2023-05-10T09:20:42;13.15;;;4.90;;
39860;SDS011;25529;49.346;20.886;2023-05-10T09:23:07;15.20;;;5.30;;
39860;SDS011;25529;49.346;20.886;2023-05-10T09:25:32;15.82;;;4.90;;
39860;SDS011;25529;49.346;20.886;2023-05-10T09:27:58;17.40;;;6.07;;
39860;SDS011;25529;49.346;20.886;2023-05-10T09:30:28;29.88;;;13.93;;
39860;SDS011;25529;49.346;20.886;2023-05-10T09:59:09;15.05;;;5.13;;
39860;SDS011;25529;49.346;20.886;2023-05-10T10:01:34;16.55;;;5.63;;
39860;SDS011;25529;49.346;20.886;2023-05-10T10:04:04;19.20;;;6.82;;
39860;SDS011;25529;49.346;20.886;2023-05-10T10:06:31;19.90;;;7.68;;
39860;SDS011;25529;49.346;20.886;2023-05-10T10:08:59;98.93;;;46.38;;
39860;SDS011;25529;49.346;20.886;2023-05-10T10:11:26;127.43;;;67.82;;
39860;SDS011;25529;49.346;20.886;2023-05-10T10:13:51;37.83;;;17.50;;
39860;SDS011;25529;49.346;20.886;2023-05-10T10:16:16;23.13;;;7.97;;
39860;SDS011;25529;49.346;20.886;2023-05-10T10:18:42;20.65;;;6.80;;
39860;SDS011;25529;49.346;20.886;2023-05-10T10:21:07;20.23;;;7.68;;
39860;SDS011;25529;49.346;20.886;2023-05-10T10:23:35;18.52;;;7.07;;
39860;SDS011;25529;49.346;20.886;2023-05-10T10:26:02;24.52;;;7.22;;
39860;SDS011;25529;49.346;20.886;2023-05-10T10:28:34;22.08;;;7.63;;
39860;SDS011;25529;49.346;20.886;2023-05-10T10:31:10;22.70;;;8.70;;
39860;SDS011;25529;49.346;20.886;2023-05-10T10:33:49;25.23;;;10.25;;
39860;SDS011;25529;49.346;20.886;2023-05-10T10:36:16;17.52;;;5.70;;
39860;SDS011;25529;49.346;20.886;2023-05-10T10:41:34;19.45;;;5.68;;
39860;SDS011;25529;49.346;20.886;2023-05-10T10:47:28;24.92;;;10.55;;
39860;SDS011;25529;49.346;20.886;2023-05-10T10:57:28;13.25;;;5.30;;
39860;SDS011;25529;49.346;20.886;2023-05-10T11:02:43;16.95;;;6.43;;
39860;SDS011;25529;49.346;20.886;2023-05-10T11:05:44;16.15;;;5.10;;
39860;SDS011;25529;49.346;20.886;2023-05-10T11:11:20;13.75;;;5.38;;
39860;SDS011;25529;49.346;20.886;2023-05-10T11:13:42;14.70;;;5.45;;
39860;SDS011;25529;49.346;20.886;2023-05-10T11:21:49;13.85;;;5.03;;
39860;SDS011;25529;49.346;20.886;2023-05-10T11:24:16;14.85;;;5.05;;
39860;SDS011;25529;49.346;20.886;2023-05-10T11:26:43;15.02;;;5.50;;
39860;SDS011;25529;49.346;20.886;2023-05-10T11:29:08;14.35;;;5.40;;
39860;SDS011;25529;49.346;20.886;2023-05-10T11:31:34;18.58;;;5.90;;
39860;SDS011;25529;49.346;20.886;2023-05-10T11:33:59;15.98;;;5.43;;
39860;SDS011;25529;49.346;20.886;2023-05-10T11:36:32;17.38;;;5.65;;
39860;SDS011;25529;49.346;20.886;2023-05-10T11:38:58;18.77;;;6.15;;
39860;SDS011;25529;49.346;20.886;2023-05-10T11:41:23;14.77;;;5.07;;
39860;SDS011;25529;49.346;20.886;2023-05-10T11:43:50;14.55;;;4.60;;
39860;SDS011;25529;49.346;20.886;2023-05-10T11:46:15;14.02;;;5.07;;
39860;SDS011;25529;49.346;20.886;2023-05-10T11:48:45;16.92;;;5.63;;
39860;SDS011;25529;49.346;20.886;2023-05-10T11:51:10;14.13;;;5.28;;
39860;SDS011;25529;49.346;20.886;2023-05-10T11:53:36;20.08;;;5.65;;
39860;SDS011;25529;49.346;20.886;2023-05-10T11:56:08;15.82;;;5.40;;
39860;SDS011;25529;49.346;20.886;2023-05-10T11:58:34;15.73;;;5.40;;
39860;SDS011;25529;49.346;20.886;2023-05-10T12:01:00;15.38;;;5.32;;
39860;SDS011;25529;49.346;20.886;2023-05-10T12:03:25;17.08;;;6.18;;
39860;SDS011;25529;49.346;20.886;2023-05-10T12:05:51;16.90;;;6.30;;
39860;SDS011;25529;49.346;20.886;2023-05-10T12:08:20;16.83;;;6.38;;
39860;SDS011;25529;49.346;20.886;2023-05-10T12:10:45;15.13;;;5.45;;
39860;SDS011;25529;49.346;20.886;2023-05-10T12:13:11;15.50;;;5.40;;
39860;SDS011;25529;49.346;20.886;2023-05-10T12:15:38;15.80;;;6.15;;
39860;SDS011;25529;49.346;20.886;2023-05-10T12:18:03;15.65;;;5.82;;
39860;SDS011;25529;49.346;20.886;2023-05-10T12:20:30;17.05;;;5.65;;
39860;SDS011;25529;49.346;20.886;2023-05-10T12:22:56;12.88;;;4.95;;
39860;SDS011;25529;49.346;20.886;2023-05-10T12:25:23;15.60;;;5.20;;
39860;SDS011;25529;49.346;20.886;2023-05-10T12:27:52;16.67;;;5.10;;
39860;SDS011;25529;49.346;20.886;2023-05-10T12:30:27;17.17;;;5.95;;
39860;SDS011;25529;49.346;20.886;2023-05-10T12:32:53;14.43;;;5.10;;
39860;SDS011;25529;49.346;20.886;2023-05-10T12:35:18;15.32;;;5.45;;
39860;SDS011;25529;49.346;20.886;2023-05-10T12:37:50;12.70;;;4.82;;
39860;SDS011;25529;49.346;20.886;2023-05-10T12:40:15;22.48;;;9.32;;
39860;SDS011;25529;49.346;20.886;2023-05-10T12:42:41;18.80;;;6.15;;
39860;SDS011;25529;49.346;20.886;2023-05-10T12:45:06;14.65;;;5.30;;
39860;SDS011;25529;49.346;20.886;2023-05-10T12:47:32;12.25;;;4.88;;
39860;SDS011;25529;49.346;20.886;2023-05-10T12:49:58;17.75;;;5.60;;
39860;SDS011;25529;49.346;20.886;2023-05-10T12:52:25;16.65;;;5.70;;
39860;SDS011;25529;49.346;20.886;2023-05-10T12:54:51;14.13;;;4.70;;
39860;SDS011;25529;49.346;20.886;2023-05-10T12:57:16;17.13;;;6.03;;
39860;SDS011;25529;49.346;20.886;2023-05-10T12:59:41;20.92;;;7.78;;
39860;SDS011;25529;49.346;20.886;2023-05-10T13:02:07;18.58;;;6.43;;
39860;SDS011;25529;49.346;20.886;2023-05-10T13:04:32;15.07;;;5.10;;
39860;SDS011;25529;49.346;20.886;2023-05-10T13:06:57;19.30;;;5.50;;
39860;SDS011;25529;49.346;20.886;2023-05-10T13:09:27;15.85;;;5.20;;
39860;SDS011;25529;49.346;20.886;2023-05-10T13:11:54;13.93;;;4.68;;
39860;SDS011;25529;49.346;20.886;2023-05-10T13:14:20;15.63;;;4.78;;
39860;SDS011;25529;49.346;20.886;2023-05-10T13:16:46;15.85;;;5.28;;
39860;SDS011;25529;49.346;20.886;2023-05-10T13:19:12;15.23;;;5.15;;
39860;SDS011;25529;49.346;20.886;2023-05-10T13:21:37;13.10;;;4.65;;
39860;SDS011;25529;49.346;20.886;2023-05-10T13:24:02;13.98;;;4.78;;
39860;SDS011;25529;49.346;20.886;2023-05-10T13:26:28;17.23;;;5.68;;
39860;SDS011;25529;49.346;20.886;2023-05-10T13:28:57;15.02;;;5.30;;
39860;SDS011;25529;49.346;20.886;2023-05-10T13:31:23;12.32;;;4.40;;
39860;SDS011;25529;49.346;20.886;2023-05-10T13:33:48;11.98;;;4.97;;
39860;SDS011;25529;49.346;20.886;2023-05-10T13:36:14;13.63;;;5.07;;
39860;SDS011;25529;49.346;20.886;2023-05-10T13:38:42;11.88;;;4.47;;
39860;SDS011;25529;49.346;20.886;2023-05-10T13:41:07;15.00;;;4.60;;
39860;SDS011;25529;49.346;20.886;2023-05-10T13:43:33;13.07;;;4.72;;
39860;SDS011;25529;49.346;20.886;2023-05-10T13:46:01;11.00;;;4.40;;
39860;SDS011;25529;49.346;20.886;2023-05-10T13:48:26;11.38;;;4.57;;
39860;SDS011;25529;49.346;20.886;2023-05-10T13:50:52;16.27;;;4.65;;
39860;SDS011;25529;49.346;20.886;2023-05-10T13:53:17;10.95;;;4.43;;
39860;SDS011;25529;49.346;20.886;2023-05-10T13:58:46;16.30;;;5.30;;
39860;SDS011;25529;49.346;20.886;2023-05-10T14:01:15;11.55;;;4.43;;
39860;SDS011;25529;49.346;20.886;2023-05-10T14:03:41;9.32;;;4.35;;
39860;SDS011;25529;49.346;20.886;2023-05-10T14:06:06;14.25;;;4.40;;
39860;SDS011;25529;49.346;20.886;2023-05-10T14:08:32;11.68;;;4.65;;
39860;SDS011;25529;49.346;20.886;2023-05-10T14:10:58;14.23;;;5.28;;
39860;SDS011;25529;49.346;20.886;2023-05-10T14:13:24;11.18;;;4.50;;
39860;SDS011;25529;49.346;20.886;2023-05-10T14:15:50;8.18;;;4.03;;
39860;SDS011;25529;49.346;20.886;2023-05-10T14:18:15;13.23;;;4.20;;
39860;SDS011;25529;49.346;20.886;2023-05-10T14:20:41;11.95;;;4.35;;
39860;SDS011;25529;49.346;20.886;2023-05-10T14:23:06;14.02;;;4.40;;
39860;SDS011;25529;49.346;20.886;2023-05-10T14:25:32;12.40;;;4.60;;
39860;SDS011;25529;49.346;20.886;2023-05-10T14:27:58;9.23;;;4.00;;
39860;SDS011;25529;49.346;20.886;2023-05-10T14:30:23;12.68;;;4.15;;
39860;SDS011;25529;49.346;20.886;2023-05-10T14:32:52;9.88;;;4.10;;
39860;SDS011;25529;49.346;20.886;2023-05-10T14:35:19;12.23;;;4.30;;
39860;SDS011;25529;49.346;20.886;2023-05-10T14:37:44;12.35;;;4.25;;
39860;SDS011;25529;49.346;20.886;2023-05-10T14:40:09;10.55;;;4.10;;
39860;SDS011;25529;49.346;20.886;2023-05-10T14:42:35;13.43;;;4.38;;
39860;SDS011;25529;49.346;20.886;2023-05-10T14:45:00;16.58;;;4.65;;
39860;SDS011;25529;49.346;20.886;2023-05-10T14:47:27;9.93;;;4.07;;
39860;SDS011;25529;49.346;20.886;2023-05-10T14:49:52;12.60;;;4.20;;
39860;SDS011;25529;49.346;20.886;2023-05-10T14:55:20;11.35;;;3.80;;
39860;SDS011;25529;49.346;20.886;2023-05-10T14:57:46;10.45;;;4.40;;
39860;SDS011;25529;49.346;20.886;2023-05-10T15:00:12;9.43;;;4.20;;
39860;SDS011;25529;49.346;20.886;2023-05-10T15:02:40;11.32;;;4.15;;
39860;SDS011;25529;49.346;20.886;2023-05-10T15:05:06;11.80;;;4.30;;
39860;SDS011;25529;49.346;20.886;2023-05-10T15:07:32;11.57;;;4.28;;
39860;SDS011;25529;49.346;20.886;2023-05-10T15:09:57;11.35;;;4.45;;
39860;SDS011;25529;49.346;20.886;2023-05-10T15:12:23;12.32;;;4.43;;
39860;SDS011;25529;49.346;20.886;2023-05-10T15:18:09;10.77;;;4.47;;
39860;SDS011;25529;49.346;20.886;2023-05-10T15:20:35;12.93;;;4.90;;
39860;SDS011;25529;49.346;20.886;2023-05-10T15:23:00;11.80;;;4.63;;
39860;SDS011;25529;49.346;20.886;2023-05-10T15:25:26;12.05;;;4.60;;
39860;SDS011;25529;49.346;20.886;2023-05-10T15:27:52;20.98;;;5.65;;
39860;SDS011;25529;49.346;20.886;2023-05-10T15:30:18;12.10;;;4.57;;
39860;SDS011;25529;49.346;20.886;2023-05-10T15:32:43;14.93;;;4.90;;
39860;SDS011;25529;49.346;20.886;2023-05-10T15:35:08;16.25;;;5.00;;
39860;SDS011;25529;49.346;20.886;2023-05-10T15:37:36;12.10;;;4.40;;
39860;SDS011;25529;49.346;20.886;2023-05-10T15:40:01;16.40;;;5.20;;
39860;SDS011;25529;49.346;20.886;2023-05-10T15:42:30;13.10;;;4.28;;